sensor_id;sensor_type;location;lat;lon;timestamp;P1;durP1;ratioP1;P2;durP2;ratioP2
31760;SDS011;18335;51.486;7.562;2022-11-15T00:00:10;12.85;;;6.78;;
31760;SDS011;18335;51.486;7.562;2022-11-15T00:02:57;12.77;;;6.57;;
31760;SDS011;18335;51.486;7.562;2022-11-15T00:05:42;13.38;;;6.55;;
31760;SDS011;18335;51.486;7.562;2022-11-15T00:08:28;17.20;;;6.22;;
31760;SDS011;18335;51.486;7.562;2022-11-15T00:11:13;15.00;;;7.20;;
31760;SDS011;18335;51.486;7.562;2022-11-15T00:13:59;12.82;;;6.70;;
31760;SDS011;18335;51.486;7.562;2022-11-15T00:19:32;13.52;;;6.88;;
31760;SDS011;18335;51.486;7.562;2022-11-15T00:25:03;13.68;;;7.13;;
31760;SDS011;18335;51.486;7.562;2022-11-15T00:27:49;15.60;;;6.78;;
31760;SDS011;18335;51.486;7.562;2022-11-15T00:30:35;13.23;;;6.80;;
31760;SDS011;18335;51.486;7.562;2022-11-15T00:33:20;13.98;;;7.15;;
31760;SDS011;18335;51.486;7.562;2022-11-15T00:36:08;14.85;;;7.50;;
31760;SDS011;18335;51.486;7.562;2022-11-15T00:38:54;13.43;;;7.00;;
31760;SDS011;18335;51.486;7.562;2022-11-15T00:41:39;15.15;;;7.20;;
31760;SDS011;18335;51.486;7.562;2022-11-15T00:44:25;15.65;;;6.80;;
31760;SDS011;18335;51.486;7.562;2022-11-15T00:47:10;14.63;;;6.95;;
31760;SDS011;18335;51.486;7.562;2022-11-15T00:49:55;15.93;;;6.47;;
31760;SDS011;18335;51.486;7.562;2022-11-15T00:52:42;15.35;;;6.53;;
31760;SDS011;18335;51.486;7.562;2022-11-15T00:55:27;14.63;;;6.55;;
31760;SDS011;18335;51.486;7.562;2022-11-15T00:58:12;12.07;;;6.72;;
31760;SDS011;18335;51.486;7.562;2022-11-15T01:01:04;16.02;;;7.07;;
31760;SDS011;18335;51.486;7.562;2022-11-15T01:03:50;13.63;;;6.85;;
31760;SDS011;18335;51.486;7.562;2022-11-15T01:06:36;17.15;;;7.53;;
31760;SDS011;18335;51.486;7.562;2022-11-15T01:09:22;12.90;;;6.05;;
31760;SDS011;18335;51.486;7.562;2022-11-15T01:12:07;12.55;;;6.50;;
31760;SDS011;18335;51.486;7.562;2022-11-15T01:14:53;16.40;;;6.85;;
31760;SDS011;18335;51.486;7.562;2022-11-15T01:17:38;13.90;;;6.35;;
31760;SDS011;18335;51.486;7.562;2022-11-15T01:20:23;11.52;;;6.03;;
31760;SDS011;18335;51.486;7.562;2022-11-15T01:23:09;13.48;;;6.32;;
31760;SDS011;18335;51.486;7.562;2022-11-15T01:25:59;13.43;;;7.35;;
31760;SDS011;18335;51.486;7.562;2022-11-15T01:28:44;12.07;;;6.38;;
31760;SDS011;18335;51.486;7.562;2022-11-15T01:31:30;11.55;;;6.55;;
31760;SDS011;18335;51.486;7.562;2022-11-15T01:34:15;14.38;;;6.25;;
31760;SDS011;18335;51.486;7.562;2022-11-15T01:37:00;13.48;;;6.93;;
31760;SDS011;18335;51.486;7.562;2022-11-15T01:39:46;16.23;;;6.38;;
31760;SDS011;18335;51.486;7.562;2022-11-15T01:42:32;14.45;;;7.57;;
31760;SDS011;18335;51.486;7.562;2022-11-15T01:45:18;15.05;;;7.78;;
31760;SDS011;18335;51.486;7.562;2022-11-15T01:48:03;15.68;;;6.88;;
31760;SDS011;18335;51.486;7.562;2022-11-15T01:50:49;12.65;;;7.03;;
31760;SDS011;18335;51.486;7.562;2022-11-15T01:53:35;12.98;;;6.60;;
31760;SDS011;18335;51.486;7.562;2022-11-15T01:56:24;15.88;;;7.10;;
31760;SDS011;18335;51.486;7.562;2022-11-15T01:59:14;13.73;;;6.80;;
31760;SDS011;18335;51.486;7.562;2022-11-15T02:02:00;11.93;;;6.45;;
31760;SDS011;18335;51.486;7.562;2022-11-15T02:04:46;12.43;;;7.18;;
31760;SDS011;18335;51.486;7.562;2022-11-15T02:07:32;12.55;;;6.82;;
31760;SDS011;18335;51.486;7.562;2022-11-15T02:10:20;13.57;;;6.68;;
31760;SDS011;18335;51.486;7.562;2022-11-15T02:13:07;13.82;;;7.18;;
31760;SDS011;18335;51.486;7.562;2022-11-15T02:15:57;15.88;;;7.78;;
31760;SDS011;18335;51.486;7.562;2022-11-15T02:18:49;13.85;;;7.65;;
31760;SDS011;18335;51.486;7.562;2022-11-15T02:21:41;15.27;;;7.15;;
31760;SDS011;18335;51.486;7.562;2022-11-15T02:27:57;13.35;;;6.88;;
31760;SDS011;18335;51.486;7.562;2022-11-15T02:30:59;13.27;;;7.75;;
31760;SDS011;18335;51.486;7.562;2022-11-15T02:33:50;15.25;;;7.05;;
31760;SDS011;18335;51.486;7.562;2022-11-15T02:36:42;14.48;;;7.53;;
31760;SDS011;18335;51.486;7.562;2022-11-15T02:39:34;14.27;;;7.35;;
31760;SDS011;18335;51.486;7.562;2022-11-15T02:42:27;11.63;;;6.68;;
31760;SDS011;18335;51.486;7.562;2022-11-15T02:45:35;13.45;;;6.95;;
31760;SDS011;18335;51.486;7.562;2022-11-15T02:48:25;14.32;;;7.72;;
31760;SDS011;18335;51.486;7.562;2022-11-15T02:51:11;14.18;;;7.18;;
31760;SDS011;18335;51.486;7.562;2022-11-15T02:53:58;13.60;;;7.63;;
31760;SDS011;18335;51.486;7.562;2022-11-15T02:56:43;14.52;;;7.13;;
31760;SDS011;18335;51.486;7.562;2022-11-15T02:59:35;13.50;;;7.03;;
31760;SDS011;18335;51.486;7.562;2022-11-15T03:02:42;13.45;;;7.60;;
31760;SDS011;18335;51.486;7.562;2022-11-15T03:05:46;16.73;;;7.32;;
31760;SDS011;18335;51.486;7.562;2022-11-15T03:08:40;17.92;;;7.40;;
31760;SDS011;18335;51.486;7.562;2022-11-15T03:11:37;15.85;;;7.57;;
31760;SDS011;18335;51.486;7.562;2022-11-15T03:14:27;12.40;;;7.20;;
31760;SDS011;18335;51.486;7.562;2022-11-15T03:17:18;16.60;;;7.45;;
31760;SDS011;18335;51.486;7.562;2022-11-15T03:20:09;14.80;;;8.57;;
31760;SDS011;18335;51.486;7.562;2022-11-15T03:23:00;15.93;;;7.57;;
31760;SDS011;18335;51.486;7.562;2022-11-15T03:25:48;17.60;;;8.77;;
31760;SDS011;18335;51.486;7.562;2022-11-15T03:28:37;11.75;;;7.05;;
31760;SDS011;18335;51.486;7.562;2022-11-15T03:31:26;13.35;;;7.35;;
31760;SDS011;18335;51.486;7.562;2022-11-15T03:34:34;13.43;;;7.88;;
31760;SDS011;18335;51.486;7.562;2022-11-15T03:37:24;13.65;;;6.15;;
31760;SDS011;18335;51.486;7.562;2022-11-15T03:40:17;14.00;;;5.72;;
31760;SDS011;18335;51.486;7.562;2022-11-15T03:43:07;14.30;;;5.90;;
31760;SDS011;18335;51.486;7.562;2022-11-15T03:46:01;10.85;;;6.15;;
31760;SDS011;18335;51.486;7.562;2022-11-15T03:48:49;13.52;;;6.05;;
31760;SDS011;18335;51.486;7.562;2022-11-15T03:51:38;12.10;;;5.38;;
31760;SDS011;18335;51.486;7.562;2022-11-15T03:54:23;11.85;;;5.70;;
31760;SDS011;18335;51.486;7.562;2022-11-15T03:57:10;12.75;;;5.90;;
31760;SDS011;18335;51.486;7.562;2022-11-15T03:59:55;9.48;;;5.03;;
31760;SDS011;18335;51.486;7.562;2022-11-15T04:02:40;11.75;;;5.18;;
31760;SDS011;18335;51.486;7.562;2022-11-15T04:05:26;10.75;;;5.15;;
31760;SDS011;18335;51.486;7.562;2022-11-15T04:08:11;12.27;;;4.65;;
31760;SDS011;18335;51.486;7.562;2022-11-15T04:10:56;12.05;;;5.05;;
31760;SDS011;18335;51.486;7.562;2022-11-15T04:13:43;9.85;;;5.20;;
31760;SDS011;18335;51.486;7.562;2022-11-15T04:19:14;10.48;;;5.15;;
31760;SDS011;18335;51.486;7.562;2022-11-15T04:22:31;12.70;;;5.53;;
31760;SDS011;18335;51.486;7.562;2022-11-15T04:25:34;11.50;;;6.38;;
31760;SDS011;18335;51.486;7.562;2022-11-15T04:28:19;11.55;;;6.07;;
31760;SDS011;18335;51.486;7.562;2022-11-15T04:31:06;10.50;;;5.20;;
31760;SDS011;18335;51.486;7.562;2022-11-15T04:33:52;11.98;;;5.63;;
31760;SDS011;18335;51.486;7.562;2022-11-15T04:36:37;10.88;;;5.90;;
31760;SDS011;18335;51.486;7.562;2022-11-15T04:39:41;12.48;;;5.97;;
31760;SDS011;18335;51.486;7.562;2022-11-15T04:42:27;12.60;;;5.50;;
31760;SDS011;18335;51.486;7.562;2022-11-15T04:45:12;12.98;;;5.28;;
31760;SDS011;18335;51.486;7.562;2022-11-15T04:47:59;10.85;;;5.80;;
31760;SDS011;18335;51.486;7.562;2022-11-15T04:50:44;9.43;;;5.28;;
31760;SDS011;18335;51.486;7.562;2022-11-15T04:53:29;11.07;;;5.82;;
31760;SDS011;18335;51.486;7.562;2022-11-15T04:56:14;11.98;;;5.50;;
31760;SDS011;18335;51.486;7.562;2022-11-15T04:58:59;13.45;;;6.22;;
31760;SDS011;18335;51.486;7.562;2022-11-15T05:01:45;10.73;;;5.95;;
31760;SDS011;18335;51.486;7.562;2022-11-15T05:04:31;10.15;;;5.57;;
31760;SDS011;18335;51.486;7.562;2022-11-15T05:07:15;9.18;;;5.00;;
31760;SDS011;18335;51.486;7.562;2022-11-15T05:10:01;11.45;;;6.03;;
31760;SDS011;18335;51.486;7.562;2022-11-15T05:12:46;11.65;;;6.03;;
31760;SDS011;18335;51.486;7.562;2022-11-15T05:15:31;10.35;;;5.47;;
31760;SDS011;18335;51.486;7.562;2022-11-15T05:18:16;11.30;;;5.35;;
31760;SDS011;18335;51.486;7.562;2022-11-15T05:21:04;12.35;;;5.70;;
31760;SDS011;18335;51.486;7.562;2022-11-15T05:23:50;9.40;;;4.95;;
31760;SDS011;18335;51.486;7.562;2022-11-15T05:26:35;8.68;;;5.20;;
31760;SDS011;18335;51.486;7.562;2022-11-15T05:29:20;9.40;;;4.75;;
31760;SDS011;18335;51.486;7.562;2022-11-15T05:32:06;9.20;;;4.78;;
31760;SDS011;18335;51.486;7.562;2022-11-15T05:34:53;10.75;;;5.60;;
31760;SDS011;18335;51.486;7.562;2022-11-15T05:37:40;10.18;;;5.22;;
31760;SDS011;18335;51.486;7.562;2022-11-15T05:43:12;11.05;;;4.90;;
31760;SDS011;18335;51.486;7.562;2022-11-15T05:45:57;11.32;;;5.60;;
31760;SDS011;18335;51.486;7.562;2022-11-15T05:48:45;10.88;;;5.47;;
31760;SDS011;18335;51.486;7.562;2022-11-15T05:51:33;10.95;;;5.30;;
31760;SDS011;18335;51.486;7.562;2022-11-15T05:54:20;11.65;;;5.40;;
31760;SDS011;18335;51.486;7.562;2022-11-15T05:57:08;10.07;;;5.78;;
31760;SDS011;18335;51.486;7.562;2022-11-15T05:59:54;10.90;;;4.57;;
31760;SDS011;18335;51.486;7.562;2022-11-15T06:02:40;11.27;;;5.57;;
31760;SDS011;18335;51.486;7.562;2022-11-15T06:05:25;10.55;;;5.47;;
31760;SDS011;18335;51.486;7.562;2022-11-15T06:08:10;10.20;;;5.20;;
31760;SDS011;18335;51.486;7.562;2022-11-15T06:11:02;8.95;;;4.80;;
31760;SDS011;18335;51.486;7.562;2022-11-15T06:13:48;10.93;;;4.72;;
31760;SDS011;18335;51.486;7.562;2022-11-15T06:16:33;11.20;;;4.78;;
31760;SDS011;18335;51.486;7.562;2022-11-15T06:19:18;8.15;;;4.57;;
31760;SDS011;18335;51.486;7.562;2022-11-15T06:22:03;9.48;;;4.82;;
31760;SDS011;18335;51.486;7.562;2022-11-15T06:24:49;10.25;;;4.28;;
31760;SDS011;18335;51.486;7.562;2022-11-15T06:27:35;9.52;;;4.25;;
31760;SDS011;18335;51.486;7.562;2022-11-15T06:30:20;9.13;;;4.43;;
31760;SDS011;18335;51.486;7.562;2022-11-15T06:33:06;11.70;;;4.03;;
31760;SDS011;18335;51.486;7.562;2022-11-15T06:35:52;10.20;;;4.28;;
31760;SDS011;18335;51.486;7.562;2022-11-15T06:38:37;7.18;;;4.05;;
31760;SDS011;18335;51.486;7.562;2022-11-15T06:41:22;7.78;;;3.47;;
31760;SDS011;18335;51.486;7.562;2022-11-15T06:44:09;5.85;;;3.30;;
31760;SDS011;18335;51.486;7.562;2022-11-15T06:46:54;8.68;;;3.58;;
31760;SDS011;18335;51.486;7.562;2022-11-15T06:49:39;6.38;;;3.40;;
31760;SDS011;18335;51.486;7.562;2022-11-15T06:52:24;6.28;;;3.40;;
31760;SDS011;18335;51.486;7.562;2022-11-15T06:55:10;7.90;;;3.10;;
31760;SDS011;18335;51.486;7.562;2022-11-15T06:57:55;6.55;;;3.60;;
31760;SDS011;18335;51.486;7.562;2022-11-15T07:00:41;9.68;;;3.20;;
31760;SDS011;18335;51.486;7.562;2022-11-15T07:06:12;9.13;;;4.10;;
31760;SDS011;18335;51.486;7.562;2022-11-15T07:08:58;8.05;;;3.95;;
31760;SDS011;18335;51.486;7.562;2022-11-15T07:11:43;8.40;;;3.35;;
31760;SDS011;18335;51.486;7.562;2022-11-15T07:14:28;9.20;;;3.20;;
31760;SDS011;18335;51.486;7.562;2022-11-15T07:17:14;6.68;;;2.83;;
31760;SDS011;18335;51.486;7.562;2022-11-15T07:19:59;6.05;;;2.08;;
31760;SDS011;18335;51.486;7.562;2022-11-15T07:22:44;5.53;;;2.90;;
31760;SDS011;18335;51.486;7.562;2022-11-15T07:25:30;8.18;;;2.80;;
31760;SDS011;18335;51.486;7.562;2022-11-15T07:28:15;7.15;;;2.20;;
31760;SDS011;18335;51.486;7.562;2022-11-15T07:31:01;3.22;;;1.65;;
31760;SDS011;18335;51.486;7.562;2022-11-15T07:36:34;4.30;;;1.92;;
31760;SDS011;18335;51.486;7.562;2022-11-15T07:39:19;5.07;;;2.00;;
31760;SDS011;18335;51.486;7.562;2022-11-15T07:42:04;4.63;;;2.38;;
31760;SDS011;18335;51.486;7.562;2022-11-15T07:45:08;5.45;;;1.90;;
31760;SDS011;18335;51.486;7.562;2022-11-15T07:47:54;4.75;;;1.98;;
31760;SDS011;18335;51.486;7.562;2022-11-15T07:50:41;4.88;;;1.95;;
31760;SDS011;18335;51.486;7.562;2022-11-15T07:53:27;5.88;;;2.70;;
31760;SDS011;18335;51.486;7.562;2022-11-15T07:56:12;4.00;;;2.00;;
31760;SDS011;18335;51.486;7.562;2022-11-15T07:58:58;4.78;;;1.85;;
31760;SDS011;18335;51.486;7.562;2022-11-15T08:01:44;6.75;;;2.33;;
31760;SDS011;18335;51.486;7.562;2022-11-15T08:04:29;2.63;;;1.48;;
31760;SDS011;18335;51.486;7.562;2022-11-15T08:07:15;4.75;;;1.70;;
31760;SDS011;18335;51.486;7.562;2022-11-15T08:10:00;6.13;;;1.92;;
31760;SDS011;18335;51.486;7.562;2022-11-15T08:12:47;3.50;;;1.70;;
31760;SDS011;18335;51.486;7.562;2022-11-15T08:15:33;3.60;;;2.17;;
31760;SDS011;18335;51.486;7.562;2022-11-15T08:18:19;5.38;;;2.15;;
31760;SDS011;18335;51.486;7.562;2022-11-15T08:21:05;4.97;;;1.73;;
31760;SDS011;18335;51.486;7.562;2022-11-15T08:23:51;3.72;;;1.50;;
31760;SDS011;18335;51.486;7.562;2022-11-15T08:26:36;4.68;;;1.83;;
31760;SDS011;18335;51.486;7.562;2022-11-15T08:29:21;5.03;;;2.13;;
31760;SDS011;18335;51.486;7.562;2022-11-15T08:32:07;4.22;;;2.22;;
31760;SDS011;18335;51.486;7.562;2022-11-15T08:34:52;7.28;;;2.15;;
31760;SDS011;18335;51.486;7.562;2022-11-15T08:37:37;5.72;;;1.83;;
31760;SDS011;18335;51.486;7.562;2022-11-15T08:40:24;5.07;;;1.65;;
31760;SDS011;18335;51.486;7.562;2022-11-15T08:43:10;6.22;;;1.73;;
31760;SDS011;18335;51.486;7.562;2022-11-15T08:45:55;3.92;;;1.35;;
31760;SDS011;18335;51.486;7.562;2022-11-15T08:48:41;5.10;;;2.53;;
31760;SDS011;18335;51.486;7.562;2022-11-15T08:51:26;5.93;;;1.55;;
31760;SDS011;18335;51.486;7.562;2022-11-15T08:54:11;4.60;;;1.58;;
31760;SDS011;18335;51.486;7.562;2022-11-15T08:56:58;5.38;;;1.73;;
31760;SDS011;18335;51.486;7.562;2022-11-15T08:59:43;4.40;;;1.40;;
31760;SDS011;18335;51.486;7.562;2022-11-15T09:02:28;4.25;;;1.42;;
31760;SDS011;18335;51.486;7.562;2022-11-15T09:05:14;5.13;;;2.10;;
31760;SDS011;18335;51.486;7.562;2022-11-15T09:08:00;4.50;;;1.80;;
31760;SDS011;18335;51.486;7.562;2022-11-15T09:10:45;3.90;;;1.38;;
31760;SDS011;18335;51.486;7.562;2022-11-15T09:13:31;3.72;;;1.30;;
31760;SDS011;18335;51.486;7.562;2022-11-15T09:16:17;3.58;;;1.58;;
31760;SDS011;18335;51.486;7.562;2022-11-15T09:19:02;3.03;;;1.45;;
31760;SDS011;18335;51.486;7.562;2022-11-15T09:21:48;6.78;;;1.50;;
31760;SDS011;18335;51.486;7.562;2022-11-15T09:24:33;3.42;;;1.20;;
31760;SDS011;18335;51.486;7.562;2022-11-15T09:27:18;2.13;;;1.05;;
31760;SDS011;18335;51.486;7.562;2022-11-15T09:30:05;3.60;;;1.23;;
31760;SDS011;18335;51.486;7.562;2022-11-15T09:32:51;2.53;;;1.13;;
31760;SDS011;18335;51.486;7.562;2022-11-15T09:35:36;3.08;;;1.20;;
31760;SDS011;18335;51.486;7.562;2022-11-15T09:38:21;4.63;;;1.63;;
31760;SDS011;18335;51.486;7.562;2022-11-15T09:44:45;3.20;;;1.35;;
31760;SDS011;18335;51.486;7.562;2022-11-15T09:47:49;3.22;;;1.15;;
31760;SDS011;18335;51.486;7.562;2022-11-15T09:50:50;2.28;;;1.05;;
31760;SDS011;18335;51.486;7.562;2022-11-15T09:53:21;5.10;;;1.40;;
31760;SDS011;18335;51.486;7.562;2022-11-15T09:55:54;7.30;;;2.88;;
31760;SDS011;18335;51.486;7.562;2022-11-15T09:58:26;4.30;;;1.30;;
31760;SDS011;18335;51.486;7.562;2022-11-15T10:01:00;3.35;;;1.33;;
31760;SDS011;18335;51.486;7.562;2022-11-15T10:03:34;6.50;;;1.20;;
31760;SDS011;18335;51.486;7.562;2022-11-15T10:06:04;1.48;;;0.82;;
31760;SDS011;18335;51.486;7.562;2022-11-15T10:08:46;4.50;;;1.75;;
31760;SDS011;18335;51.486;7.562;2022-11-15T10:11:19;5.93;;;1.23;;
31760;SDS011;18335;51.486;7.562;2022-11-15T10:13:48;3.28;;;1.00;;
31760;SDS011;18335;51.486;7.562;2022-11-15T10:16:21;5.15;;;1.10;;
31760;SDS011;18335;51.486;7.562;2022-11-15T10:19:00;4.32;;;1.20;;
31760;SDS011;18335;51.486;7.562;2022-11-15T10:21:35;5.97;;;1.10;;
31760;SDS011;18335;51.486;7.562;2022-11-15T10:24:10;4.07;;;1.30;;
31760;SDS011;18335;51.486;7.562;2022-11-15T10:26:38;6.10;;;2.28;;
31760;SDS011;18335;51.486;7.562;2022-11-15T10:29:05;2.08;;;1.00;;
31760;SDS011;18335;51.486;7.562;2022-11-15T10:31:32;7.07;;;1.40;;
31760;SDS011;18335;51.486;7.562;2022-11-15T10:34:05;3.47;;;1.00;;
31760;SDS011;18335;51.486;7.562;2022-11-15T10:36:38;3.38;;;1.05;;
31760;SDS011;18335;51.486;7.562;2022-11-15T10:39:11;4.63;;;1.20;;
31760;SDS011;18335;51.486;7.562;2022-11-15T10:41:40;3.63;;;0.93;;
31760;SDS011;18335;51.486;7.562;2022-11-15T10:44:11;2.00;;;0.85;;
31760;SDS011;18335;51.486;7.562;2022-11-15T10:46:47;4.13;;;1.10;;
31760;SDS011;18335;51.486;7.562;2022-11-15T10:49:17;9.45;;;1.52;;
31760;SDS011;18335;51.486;7.562;2022-11-15T10:51:46;5.72;;;1.60;;
31760;SDS011;18335;51.486;7.562;2022-11-15T10:54:18;2.47;;;0.82;;
31760;SDS011;18335;51.486;7.562;2022-11-15T10:56:50;4.97;;;1.33;;
31760;SDS011;18335;51.486;7.562;2022-11-15T10:59:22;3.25;;;0.95;;
31760;SDS011;18335;51.486;7.562;2022-11-15T11:01:52;2.38;;;0.90;;
31760;SDS011;18335;51.486;7.562;2022-11-15T11:04:20;3.17;;;1.00;;
31760;SDS011;18335;51.486;7.562;2022-11-15T11:06:47;3.33;;;0.90;;
31760;SDS011;18335;51.486;7.562;2022-11-15T11:09:28;3.80;;;1.20;;
31760;SDS011;18335;51.486;7.562;2022-11-15T11:11:58;3.03;;;1.08;;
31760;SDS011;18335;51.486;7.562;2022-11-15T11:14:26;2.90;;;1.00;;
31760;SDS011;18335;51.486;7.562;2022-11-15T11:16:59;3.92;;;1.05;;
31760;SDS011;18335;51.486;7.562;2022-11-15T11:19:41;3.13;;;1.30;;
31760;SDS011;18335;51.486;7.562;2022-11-15T11:22:17;3.00;;;1.10;;
31760;SDS011;18335;51.486;7.562;2022-11-15T11:24:54;4.53;;;1.23;;
31760;SDS011;18335;51.486;7.562;2022-11-15T11:27:31;5.20;;;1.20;;
31760;SDS011;18335;51.486;7.562;2022-11-15T11:30:06;1.45;;;0.88;;
31760;SDS011;18335;51.486;7.562;2022-11-15T11:35:41;4.25;;;1.30;;
31760;SDS011;18335;51.486;7.562;2022-11-15T11:38:19;7.03;;;1.13;;
31760;SDS011;18335;51.486;7.562;2022-11-15T11:41:00;4.30;;;1.13;;
31760;SDS011;18335;51.486;7.562;2022-11-15T11:43:35;2.65;;;0.90;;
31760;SDS011;18335;51.486;7.562;2022-11-15T11:46:13;2.30;;;0.88;;
31760;SDS011;18335;51.486;7.562;2022-11-15T11:48:48;3.03;;;0.80;;
31760;SDS011;18335;51.486;7.562;2022-11-15T11:51:20;4.88;;;1.30;;
31760;SDS011;18335;51.486;7.562;2022-11-15T11:53:52;5.55;;;1.15;;
31760;SDS011;18335;51.486;7.562;2022-11-15T11:56:24;3.30;;;1.25;;
31760;SDS011;18335;51.486;7.562;2022-11-15T11:58:53;3.00;;;0.95;;
31760;SDS011;18335;51.486;7.562;2022-11-15T12:01:24;3.75;;;1.00;;
31760;SDS011;18335;51.486;7.562;2022-11-15T12:03:55;3.15;;;1.10;;
31760;SDS011;18335;51.486;7.562;2022-11-15T12:06:30;2.85;;;0.95;;
31760;SDS011;18335;51.486;7.562;2022-11-15T12:09:01;3.00;;;1.15;;
31760;SDS011;18335;51.486;7.562;2022-11-15T12:11:35;5.50;;;1.25;;
31760;SDS011;18335;51.486;7.562;2022-11-15T12:14:19;2.80;;;0.98;;
31760;SDS011;18335;51.486;7.562;2022-11-15T12:16:53;4.78;;;1.00;;
31760;SDS011;18335;51.486;7.562;2022-11-15T12:19:20;2.90;;;0.70;;
31760;SDS011;18335;51.486;7.562;2022-11-15T12:21:50;5.13;;;0.93;;
31760;SDS011;18335;51.486;7.562;2022-11-15T12:26:54;3.70;;;0.90;;
31760;SDS011;18335;51.486;7.562;2022-11-15T12:29:25;4.22;;;1.45;;
31760;SDS011;18335;51.486;7.562;2022-11-15T12:31:57;1.70;;;0.80;;
31760;SDS011;18335;51.486;7.562;2022-11-15T12:34:30;2.47;;;1.00;;
31760;SDS011;18335;51.486;7.562;2022-11-15T12:40:18;2.53;;;0.80;;
31760;SDS011;18335;51.486;7.562;2022-11-15T12:42:56;5.07;;;1.27;;
31760;SDS011;18335;51.486;7.562;2022-11-15T12:45:42;1.92;;;0.95;;
31760;SDS011;18335;51.486;7.562;2022-11-15T12:57:29;4.15;;;0.77;;
31760;SDS011;18335;51.486;7.562;2022-11-15T13:00:36;3.67;;;1.25;;
31760;SDS011;18335;51.486;7.562;2022-11-15T13:03:21;2.65;;;0.90;;
31760;SDS011;18335;51.486;7.562;2022-11-15T13:08:59;2.90;;;0.90;;
31760;SDS011;18335;51.486;7.562;2022-11-15T13:11:46;2.45;;;0.85;;
31760;SDS011;18335;51.486;7.562;2022-11-15T13:17:11;4.63;;;1.35;;
31760;SDS011;18335;51.486;7.562;2022-11-15T13:19:43;5.25;;;1.05;;
31760;SDS011;18335;51.486;7.562;2022-11-15T13:22:12;3.63;;;0.93;;
31760;SDS011;18335;51.486;7.562;2022-11-15T13:24:56;5.60;;;1.13;;
31760;SDS011;18335;51.486;7.562;2022-11-15T13:27:24;1.60;;;0.80;;
31760;SDS011;18335;51.486;7.562;2022-11-15T13:29:51;4.47;;;0.85;;
31760;SDS011;18335;51.486;7.562;2022-11-15T13:32:19;5.18;;;1.30;;
31760;SDS011;18335;51.486;7.562;2022-11-15T13:34:47;5.63;;;1.40;;
31760;SDS011;18335;51.486;7.562;2022-11-15T13:37:27;5.93;;;1.27;;
31760;SDS011;18335;51.486;7.562;2022-11-15T13:40:09;7.53;;;1.05;;
31760;SDS011;18335;51.486;7.562;2022-11-15T13:42:46;8.63;;;3.50;;
31760;SDS011;18335;51.486;7.562;2022-11-15T13:45:13;10.27;;;2.63;;
31760;SDS011;18335;51.486;7.562;2022-11-15T13:47:41;7.35;;;1.30;;
31760;SDS011;18335;51.486;7.562;2022-11-15T13:50:10;3.75;;;1.30;;
31760;SDS011;18335;51.486;7.562;2022-11-15T13:52:37;3.70;;;1.08;;
31760;SDS011;18335;51.486;7.562;2022-11-15T13:55:09;4.47;;;0.98;;
31760;SDS011;18335;51.486;7.562;2022-11-15T13:57:39;4.88;;;0.93;;
31760;SDS011;18335;51.486;7.562;2022-11-15T14:02:56;6.13;;;1.98;;
31760;SDS011;18335;51.486;7.562;2022-11-15T14:05:31;4.38;;;1.23;;
31760;SDS011;18335;51.486;7.562;2022-11-15T14:07:58;3.42;;;1.00;;
31760;SDS011;18335;51.486;7.562;2022-11-15T14:10:29;7.43;;;1.60;;
31760;SDS011;18335;51.486;7.562;2022-11-15T14:12:57;4.75;;;1.40;;
31760;SDS011;18335;51.486;7.562;2022-11-15T14:15:28;3.40;;;1.10;;
31760;SDS011;18335;51.486;7.562;2022-11-15T14:17:57;5.93;;;1.73;;
31760;SDS011;18335;51.486;7.562;2022-11-15T14:23:03;5.43;;;1.33;;
31760;SDS011;18335;51.486;7.562;2022-11-15T14:25:31;4.82;;;1.63;;
31760;SDS011;18335;51.486;7.562;2022-11-15T14:28:09;6.40;;;1.52;;
31760;SDS011;18335;51.486;7.562;2022-11-15T14:30:40;6.10;;;1.73;;
31760;SDS011;18335;51.486;7.562;2022-11-15T14:33:17;5.05;;;1.77;;
31760;SDS011;18335;51.486;7.562;2022-11-15T14:35:46;5.97;;;1.42;;
31760;SDS011;18335;51.486;7.562;2022-11-15T14:38:13;7.68;;;1.90;;
31760;SDS011;18335;51.486;7.562;2022-11-15T14:40:40;9.93;;;3.10;;
31760;SDS011;18335;51.486;7.562;2022-11-15T14:43:08;7.47;;;1.77;;
31760;SDS011;18335;51.486;7.562;2022-11-15T14:45:35;7.18;;;2.13;;
31760;SDS011;18335;51.486;7.562;2022-11-15T14:48:04;13.40;;;5.55;;
31760;SDS011;18335;51.486;7.562;2022-11-15T14:50:31;13.57;;;4.97;;
31760;SDS011;18335;51.486;7.562;2022-11-15T14:52:59;6.25;;;3.00;;
31760;SDS011;18335;51.486;7.562;2022-11-15T14:55:27;3.75;;;1.48;;
31760;SDS011;18335;51.486;7.562;2022-11-15T14:57:56;3.20;;;1.40;;
31760;SDS011;18335;51.486;7.562;2022-11-15T15:00:23;6.13;;;1.50;;
31760;SDS011;18335;51.486;7.562;2022-11-15T15:02:51;6.07;;;1.60;;
31760;SDS011;18335;51.486;7.562;2022-11-15T15:05:22;7.47;;;1.73;;
31760;SDS011;18335;51.486;7.562;2022-11-15T15:07:50;2.92;;;1.30;;
31760;SDS011;18335;51.486;7.562;2022-11-15T15:10:18;3.38;;;1.20;;
31760;SDS011;18335;51.486;7.562;2022-11-15T15:12:45;3.92;;;1.55;;
31760;SDS011;18335;51.486;7.562;2022-11-15T15:15:12;4.95;;;1.27;;
31760;SDS011;18335;51.486;7.562;2022-11-15T15:17:41;3.90;;;1.45;;
31760;SDS011;18335;51.486;7.562;2022-11-15T15:20:09;7.68;;;1.63;;
31760;SDS011;18335;51.486;7.562;2022-11-15T15:22:38;5.00;;;1.80;;
31760;SDS011;18335;51.486;7.562;2022-11-15T15:25:19;5.68;;;2.78;;
31760;SDS011;18335;51.486;7.562;2022-11-15T15:27:48;5.38;;;1.90;;
31760;SDS011;18335;51.486;7.562;2022-11-15T15:30:16;7.82;;;2.15;;
31760;SDS011;18335;51.486;7.562;2022-11-15T15:32:44;6.20;;;1.80;;
31760;SDS011;18335;51.486;7.562;2022-11-15T15:35:11;4.78;;;1.40;;
31760;SDS011;18335;51.486;7.562;2022-11-15T15:37:40;6.25;;;1.77;;
31760;SDS011;18335;51.486;7.562;2022-11-15T15:40:10;4.18;;;1.80;;
31760;SDS011;18335;51.486;7.562;2022-11-15T15:42:41;3.55;;;1.30;;
31760;SDS011;18335;51.486;7.562;2022-11-15T15:45:08;4.68;;;1.50;;
31760;SDS011;18335;51.486;7.562;2022-11-15T15:47:35;3.80;;;1.40;;
31760;SDS011;18335;51.486;7.562;2022-11-15T15:50:03;5.03;;;1.80;;
31760;SDS011;18335;51.486;7.562;2022-11-15T15:52:30;9.20;;;2.10;;
31760;SDS011;18335;51.486;7.562;2022-11-15T15:54:58;7.10;;;1.80;;
31760;SDS011;18335;51.486;7.562;2022-11-15T15:57:25;4.82;;;1.50;;
31760;SDS011;18335;51.486;7.562;2022-11-15T15:59:51;2.70;;;1.35;;
31760;SDS011;18335;51.486;7.562;2022-11-15T16:02:18;13.07;;;2.95;;
31760;SDS011;18335;51.486;7.562;2022-11-15T16:04:45;5.18;;;1.63;;
31760;SDS011;18335;51.486;7.562;2022-11-15T16:07:15;4.97;;;1.83;;
31760;SDS011;18335;51.486;7.562;2022-11-15T16:09:48;4.60;;;1.63;;
31760;SDS011;18335;51.486;7.562;2022-11-15T16:12:31;4.63;;;1.60;;
31760;SDS011;18335;51.486;7.562;2022-11-15T16:14:59;2.85;;;1.30;;
31760;SDS011;18335;51.486;7.562;2022-11-15T16:17:26;5.32;;;1.88;;
31760;SDS011;18335;51.486;7.562;2022-11-15T16:19:57;6.85;;;1.60;;
31760;SDS011;18335;51.486;7.562;2022-11-15T16:22:24;4.70;;;1.30;;
31760;SDS011;18335;51.486;7.562;2022-11-15T16:24:51;3.17;;;1.40;;
31760;SDS011;18335;51.486;7.562;2022-11-15T16:27:18;4.72;;;1.83;;
31760;SDS011;18335;51.486;7.562;2022-11-15T16:29:47;4.75;;;1.60;;
31760;SDS011;18335;51.486;7.562;2022-11-15T16:32:14;4.57;;;1.60;;
31760;SDS011;18335;51.486;7.562;2022-11-15T16:34:41;4.35;;;1.15;;
31760;SDS011;18335;51.486;7.562;2022-11-15T16:37:09;2.85;;;1.52;;
31760;SDS011;18335;51.486;7.562;2022-11-15T16:39:46;6.50;;;1.40;;
31760;SDS011;18335;51.486;7.562;2022-11-15T16:42:13;5.30;;;1.90;;
31760;SDS011;18335;51.486;7.562;2022-11-15T16:44:39;4.13;;;2.17;;
31760;SDS011;18335;51.486;7.562;2022-11-15T16:47:11;9.02;;;3.75;;
31760;SDS011;18335;51.486;7.562;2022-11-15T16:49:42;6.00;;;2.08;;
31760;SDS011;18335;51.486;7.562;2022-11-15T16:52:09;4.43;;;1.73;;
31760;SDS011;18335;51.486;7.562;2022-11-15T16:54:36;5.45;;;1.33;;